Time;durP1;ratioP1;P1;durP2;ratioP2;P2;SDS_P1;SDS_P2;PMS_P1;PMS_P2;Temp;Humidity;BMP_temperature;BMP_pressure;BME280_temperature;BME280_humidity;BME280_pressure;Samples;Min_cycle;Max_cycle;Signal;HPM_P1;HPM_P2
2021/10/20 00:01:20;;;;;;;2.05;1.17;;;;;;;;;;4991622;28;20019;-37
2021/10/20 00:03:46;;;;;;;1.95;1.15;;;;;;;;;;4990340;28;20054;-36
2021/10/20 00:06:11;;;;;;;1.17;0.80;;;;;;;;;;4988873;28;20032;-36
2021/10/20 00:08:36;;;;;;;1.02;0.75;;;;;;;;;;4991923;28;20390;-36
2021/10/20 00:11:02;;;;;;;2.92;1.33;;;;;;;;;;4990018;28;20076;-36
2021/10/20 00:13:28;;;;;;;1.35;0.93;;;;;;;;;;4991537;28;20079;-36
2021/10/20 00:15:53;;;;;;;1.42;0.93;;;;;;;;;;4987886;28;20461;-36
2021/10/20 00:18:19;;;;;;;2.80;1.10;;;;;;;;;;4991034;28;20033;-36
2021/10/20 00:20:45;;;;;;;1.55;1.15;;;;;;;;;;4996154;28;20076;-36
2021/10/20 00:23:12;;;;;;;2.25;1.67;;;;;;;;;;4988219;28;20530;-36
2021/10/20 00:25:38;;;;;;;1.52;1.10;;;;;;;;;;4989645;28;20025;-37
2021/10/20 00:28:03;;;;;;;3.50;1.40;;;;;;;;;;4999661;28;20078;-36
2021/10/20 00:30:28;;;;;;;3.13;1.55;;;;;;;;;;4995255;28;20472;-36
2021/10/20 00:32:54;;;;;;;1.02;0.93;;;;;;;;;;4993676;28;20073;-37
2021/10/20 00:35:19;;;;;;;2.67;1.65;;;;;;;;;;4991513;28;20029;-37
2021/10/20 00:37:44;;;;;;;6.32;1.83;;;;;;;;;;4993810;28;20034;-36
2021/10/20 00:40:10;;;;;;;1.20;0.80;;;;;;;;;;4989750;28;20596;-36
2021/10/20 00:42:36;;;;;;;1.58;0.77;;;;;;;;;;4995330;28;20394;-37
2021/10/20 00:45:03;;;;;;;1.73;1.30;;;;;;;;;;4993048;28;20141;-37
2021/10/20 00:47:28;;;;;;;1.27;0.95;;;;;;;;;;4991369;28;20042;-36
2021/10/20 00:49:54;;;;;;;3.38;1.48;;;;;;;;;;4992454;28;20026;-36
2021/10/20 00:52:20;;;;;;;2.67;1.27;;;;;;;;;;5003080;28;20022;-36
2021/10/20 00:54:46;;;;;;;1.05;0.73;;;;;;;;;;4992595;28;20113;-36
2021/10/20 00:57:12;;;;;;;1.58;1.02;;;;;;;;;;4995100;28;20101;-36
2021/10/20 00:59:38;;;;;;;1.20;0.70;;;;;;;;;;4995824;28;20030;-38
2021/10/20 01:02:03;;;;;;;1.75;1.17;;;;;;;;;;4991824;28;20087;-37
2021/10/20 01:04:29;;;;;;;2.45;1.50;;;;;;;;;;4992356;28;20029;-40
2021/10/20 01:06:54;;;;;;;1.25;0.88;;;;;;;;;;4996805;28;20029;-39
2021/10/20 01:09:20;;;;;;;1.13;0.75;;;;;;;;;;4997425;28;20021;-39
2021/10/20 01:11:45;;;;;;;1.80;1.02;;;;;;;;;;4994020;28;20034;-38
2021/10/20 01:14:11;;;;;;;1.77;1.00;;;;;;;;;;4989190;28;20697;-39
2021/10/20 01:16:36;;;;;;;1.77;1.00;;;;;;;;;;4988380;28;20030;-41
2021/10/20 01:19:02;;;;;;;2.55;1.42;;;;;;;;;;4992611;28;20068;-39
2021/10/20 01:21:28;;;;;;;5.63;1.20;;;;;;;;;;4992386;28;20099;-39
2021/10/20 01:23:53;;;;;;;1.02;0.88;;;;;;;;;;4995232;28;20053;-36
2021/10/20 01:26:18;;;;;;;3.25;1.52;;;;;;;;;;4993738;28;20018;-38
2021/10/20 01:28:44;;;;;;;4.63;1.60;;;;;;;;;;4989261;28;20403;-37
2021/10/20 01:31:10;;;;;;;2.20;1.40;;;;;;;;;;4990470;28;20023;-36
2021/10/20 01:33:35;;;;;;;4.10;2.13;;;;;;;;;;4993890;28;20033;-37
2021/10/20 01:36:00;;;;;;;2.08;1.40;;;;;;;;;;4992909;28;20543;-37
2021/10/20 01:38:26;;;;;;;2.90;1.23;;;;;;;;;;4993242;28;20829;-39
2021/10/20 01:40:51;;;;;;;1.88;1.27;;;;;;;;;;4994867;28;20033;-36
2021/10/20 01:43:16;;;;;;;1.92;1.35;;;;;;;;;;4993631;28;20026;-36
2021/10/20 01:45:42;;;;;;;2.25;1.35;;;;;;;;;;4991921;28;20026;-36
2021/10/20 01:48:07;;;;;;;1.77;1.30;;;;;;;;;;4989415;28;20399;-36
2021/10/20 01:50:32;;;;;;;4.28;1.90;;;;;;;;;;4995922;28;20057;-36
2021/10/20 01:52:58;;;;;;;3.22;1.65;;;;;;;;;;4984300;28;20014;-36
2021/10/20 01:55:23;;;;;;;1.30;1.00;;;;;;;;;;4992257;28;20147;-36
2021/10/20 01:57:48;;;;;;;4.20;1.60;;;;;;;;;;4989174;28;20045;-37
2021/10/20 02:00:14;;;;;;;5.45;1.80;;;;;;;;;;4992644;28;20026;-36
2021/10/20 02:02:40;;;;;;;1.58;0.82;;;;;;;;;;4989133;28;20015;-36
2021/10/20 02:05:06;;;;;;;2.38;1.13;;;;;;;;;;4989362;28;20472;-36
2021/10/20 02:07:31;;;;;;;1.85;1.67;;;;;;;;;;4990222;28;20022;-36
2021/10/20 02:09:57;;;;;;;2.13;1.40;;;;;;;;;;4990552;28;20498;-36
2021/10/20 02:12:22;;;;;;;2.65;1.50;;;;;;;;;;4989008;28;20479;-36
2021/10/20 02:14:47;;;;;;;2.67;1.30;;;;;;;;;;4994501;28;20053;-36
2021/10/20 02:17:13;;;;;;;1.20;0.88;;;;;;;;;;4989297;28;20083;-36
2021/10/20 02:19:38;;;;;;;2.03;1.33;;;;;;;;;;4992335;28;20033;-37
2021/10/20 02:22:04;;;;;;;1.45;1.05;;;;;;;;;;4994525;28;20018;-37
2021/10/20 02:24:29;;;;;;;2.17;1.02;;;;;;;;;;4989123;28;20020;-36
2021/10/20 02:26:54;;;;;;;4.45;2.17;;;;;;;;;;4992668;28;20026;-36
2021/10/20 02:29:19;;;;;;;2.42;1.92;;;;;;;;;;4989922;28;20022;-37
2021/10/20 02:31:48;;;;;;;3.17;1.40;;;;;;;;;;4991517;28;20032;-36
2021/10/20 02:34:16;;;;;;;2.78;1.70;;;;;;;;;;4987635;28;20026;-37
2021/10/20 02:36:42;;;;;;;1.48;1.13;;;;;;;;;;4986937;28;20049;-36
2021/10/20 02:39:08;;;;;;;2.40;1.30;;;;;;;;;;4986985;28;20065;-37
2021/10/20 02:41:33;;;;;;;0.80;0.68;;;;;;;;;;4988157;28;20421;-36
2021/10/20 02:43:58;;;;;;;2.75;1.77;;;;;;;;;;4990017;28;20044;-36
2021/10/20 02:46:23;;;;;;;1.83;0.90;;;;;;;;;;4984565;28;20046;-36
2021/10/20 02:48:49;;;;;;;1.63;1.17;;;;;;;;;;4986556;28;20392;-36
2021/10/20 02:51:14;;;;;;;3.38;1.58;;;;;;;;;;4989603;28;20027;-36
2021/10/20 02:53:41;;;;;;;3.65;1.95;;;;;;;;;;4989703;28;20053;-36
2021/10/20 02:56:06;;;;;;;1.65;1.05;;;;;;;;;;4992324;28;20030;-36
2021/10/20 02:58:31;;;;;;;1.90;1.00;;;;;;;;;;4989102;28;20444;-36
2021/10/20 03:00:56;;;;;;;2.80;1.88;;;;;;;;;;4991224;28;20645;-36
2021/10/20 03:03:22;;;;;;;6.72;1.75;;;;;;;;;;4992233;28;20128;-36
2021/10/20 03:05:47;;;;;;;2.13;1.55;;;;;;;;;;4993125;28;20026;-36
2021/10/20 03:08:13;;;;;;;2.65;1.70;;;;;;;;;;4988952;28;20097;-36
2021/10/20 03:10:41;;;;;;;3.78;1.60;;;;;;;;;;4993320;28;20079;-37
2021/10/20 03:13:06;;;;;;;0.95;0.70;;;;;;;;;;4986578;28;20053;-35
2021/10/20 03:15:32;;;;;;;5.80;1.23;;;;;;;;;;4986024;28;20106;-36
2021/10/20 03:17:57;;;;;;;2.00;1.10;;;;;;;;;;4989447;28;20057;-37
2021/10/20 03:20:22;;;;;;;1.73;1.35;;;;;;;;;;4991688;28;20123;-36
2021/10/20 03:22:48;;;;;;;2.92;1.23;;;;;;;;;;4992271;28;20118;-37
2021/10/20 03:25:13;;;;;;;2.20;2.00;;;;;;;;;;4991016;28;20027;-36
2021/10/20 03:27:48;;;;;;;1.80;1.30;;;;;;;;;;4989107;28;20049;-36
2021/10/20 03:30:15;;;;;;;1.58;1.38;;;;;;;;;;4989300;28;20038;-36
2021/10/20 03:32:40;;;;;;;4.43;2.30;;;;;;;;;;4995842;28;20060;-37
2021/10/20 03:35:06;;;;;;;1.13;1.00;;;;;;;;;;4990581;28;20058;-36
2021/10/20 03:37:31;;;;;;;1.98;1.45;;;;;;;;;;4992777;28;20106;-36
2021/10/20 03:39:57;;;;;;;1.40;0.95;;;;;;;;;;4986321;28;20051;-36
2021/10/20 03:42:22;;;;;;;2.05;1.35;;;;;;;;;;4987872;28;20084;-36
2021/10/20 03:44:47;;;;;;;2.65;1.55;;;;;;;;;;4989045;28;20033;-36
2021/10/20 03:47:13;;;;;;;2.63;1.15;;;;;;;;;;4992368;28;20046;-36
2021/10/20 03:49:38;;;;;;;3.05;1.10;;;;;;;;;;4992401;28;20053;-36
2021/10/20 03:52:03;;;;;;;3.10;1.73;;;;;;;;;;4990693;28;20109;-36
2021/10/20 03:54:29;;;;;;;1.45;1.10;;;;;;;;;;4986897;28;20022;-36
2021/10/20 03:56:54;;;;;;;2.38;1.38;;;;;;;;;;4990558;28;20030;-37
2021/10/20 03:59:19;;;;;;;2.45;1.73;;;;;;;;;;4993839;28;20030;-36
2021/10/20 04:01:45;;;;;;;2.08;1.13;;;;;;;;;;4992034;28;20040;-37
2021/10/20 04:04:10;;;;;;;1.75;1.02;;;;;;;;;;4993074;28;20030;-36
2021/10/20 04:06:35;;;;;;;3.25;1.58;;;;;;;;;;4995222;28;20022;-37
2021/10/20 04:09:01;;;;;;;2.10;1.40;;;;;;;;;;4989530;28;20033;-36
2021/10/20 04:11:26;;;;;;;3.08;1.52;;;;;;;;;;4987749;28;20030;-38
2021/10/20 04:13:51;;;;;;;1.58;1.17;;;;;;;;;;4993086;28;20372;-40
2021/10/20 04:16:17;;;;;;;2.83;2.03;;;;;;;;;;4993216;28;20426;-38
2021/10/20 04:18:42;;;;;;;2.50;1.73;;;;;;;;;;4993752;28;20485;-37
2021/10/20 04:21:07;;;;;;;0.93;0.65;;;;;;;;;;4989908;28;20031;-37
2021/10/20 04:23:32;;;;;;;2.17;1.17;;;;;;;;;;4990400;28;20468;-37
2021/10/20 04:25:58;;;;;;;2.22;1.35;;;;;;;;;;4988957;28;20503;-37
2021/10/20 04:28:23;;;;;;;3.03;1.20;;;;;;;;;;4995687;28;20032;-41
2021/10/20 04:30:48;;;;;;;2.90;1.67;;;;;;;;;;4993533;28;20034;-39
2021/10/20 04:33:14;;;;;;;2.30;1.25;;;;;;;;;;4994761;28;20019;-38
2021/10/20 04:35:39;;;;;;;2.17;1.15;;;;;;;;;;4987652;28;20018;-39
2021/10/20 04:38:04;;;;;;;2.33;1.70;;;;;;;;;;4988755;28;20083;-39
2021/10/20 04:40:29;;;;;;;2.03;1.40;;;;;;;;;;4993696;28;20499;-38
2021/10/20 04:42:55;;;;;;;3.67;1.90;;;;;;;;;;4989572;28;20105;-43
2021/10/20 04:45:20;;;;;;;2.20;1.55;;;;;;;;;;4990043;28;20391;-39
2021/10/20 04:47:45;;;;;;;3.95;3.33;;;;;;;;;;4990956;28;20042;-40
2021/10/20 04:50:11;;;;;;;2.67;1.77;;;;;;;;;;4993958;28;20078;-40
2021/10/20 04:52:36;;;;;;;2.10;1.50;;;;;;;;;;4994826;28;20129;-38
2021/10/20 04:55:05;;;;;;;3.03;2.05;;;;;;;;;;4995651;28;20030;-37
2021/10/20 04:57:30;;;;;;;3.35;2.15;;;;;;;;;;4984590;28;20109;-38
2021/10/20 04:59:56;;;;;;;8.43;2.70;;;;;;;;;;4986178;28;20118;-40
2021/10/20 05:02:21;;;;;;;3.60;2.05;;;;;;;;;;4989123;28;20371;-40
2021/10/20 05:04:46;;;;;;;2.67;2.45;;;;;;;;;;4987905;28;20078;-38
2021/10/20 05:07:13;;;;;;;4.10;2.50;;;;;;;;;;4988976;28;20117;-37
2021/10/20 05:09:39;;;;;;;2.22;1.38;;;;;;;;;;4984410;28;20043;-37
2021/10/20 05:12:05;;;;;;;1.80;1.00;;;;;;;;;;4992734;28;20030;-38
2021/10/20 05:14:30;;;;;;;2.63;1.75;;;;;;;;;;4992136;28;20228;-40
2021/10/20 05:16:55;;;;;;;2.67;1.30;;;;;;;;;;4988818;28;20495;-38
2021/10/20 05:19:21;;;;;;;4.50;2.25;;;;;;;;;;4989167;28;20062;-39
2021/10/20 05:21:46;;;;;;;2.40;1.58;;;;;;;;;;4987249;28;20377;-37
2021/10/20 05:24:11;;;;;;;1.17;0.93;;;;;;;;;;4992448;28;20024;-38
2021/10/20 05:26:37;;;;;;;18.27;2.90;;;;;;;;;;4985516;28;20421;-41
2021/10/20 05:29:02;;;;;;;1.67;1.23;;;;;;;;;;4990256;28;20531;-40
2021/10/20 05:31:27;;;;;;;2.72;1.30;;;;;;;;;;4985916;28;20506;-38
2021/10/20 05:33:53;;;;;;;2.13;1.23;;;;;;;;;;4989473;28;20041;-38
2021/10/20 05:36:19;;;;;;;1.52;1.23;;;;;;;;;;4990438;28;20034;-39
2021/10/20 05:38:46;;;;;;;1.30;0.82;;;;;;;;;;4988068;28;20092;-37
2021/10/20 05:41:12;;;;;;;1.73;1.13;;;;;;;;;;4986399;28;20026;-42
2021/10/20 05:43:37;;;;;;;9.82;3.20;;;;;;;;;;4985136;28;20052;-45
2021/10/20 05:46:02;;;;;;;6.55;1.95;;;;;;;;;;4990902;28;20099;-43
2021/10/20 05:48:28;;;;;;;1.90;1.20;;;;;;;;;;4989463;28;20029;-40
2021/10/20 05:50:53;;;;;;;2.88;1.70;;;;;;;;;;4986525;28;20150;-40
2021/10/20 05:53:19;;;;;;;19.27;2.85;;;;;;;;;;4985531;28;20471;-43
2021/10/20 05:55:44;;;;;;;5.95;3.15;;;;;;;;;;4984414;28;20594;-38
2021/10/20 05:58:10;;;;;;;20.75;4.72;;;;;;;;;;4985578;28;20068;-40
2021/10/20 06:00:35;;;;;;;5.72;3.33;;;;;;;;;;4988226;28;20450;-39
2021/10/20 06:03:01;;;;;;;5.20;4.45;;;;;;;;;;4987719;28;20103;-38
2021/10/20 06:05:26;;;;;;;8.63;5.15;;;;;;;;;;4992153;28;20376;-38
2021/10/20 06:07:51;;;;;;;18.55;6.00;;;;;;;;;;4988371;28;20600;-38
2021/10/20 06:10:17;;;;;;;23.10;4.53;;;;;;;;;;4982599;28;20030;-37
2021/10/20 06:12:43;;;;;;;13.82;4.90;;;;;;;;;;4990776;28;20376;-39
2021/10/20 06:15:09;;;;;;;10.90;8.00;;;;;;;;;;4991503;28;20050;-38
2021/10/20 06:17:35;;;;;;;14.73;11.95;;;;;;;;;;4986647;28;20452;-37
2021/10/20 06:20:01;;;;;;;18.33;8.00;;;;;;;;;;4990264;28;20027;-38
2021/10/20 06:22:26;;;;;;;12.35;8.77;;;;;;;;;;4993459;28;20418;-39
2021/10/20 06:24:51;;;;;;;16.67;8.15;;;;;;;;;;4990267;28;20034;-38
2021/10/20 06:27:17;;;;;;;6.10;3.78;;;;;;;;;;4992432;28;20386;-37
2021/10/20 06:29:42;;;;;;;11.13;4.03;;;;;;;;;;4989085;28;20103;-39
2021/10/20 06:32:07;;;;;;;4.22;2.90;;;;;;;;;;4986453;28;20034;-59
2021/10/20 06:34:33;;;;;;;11.90;3.42;;;;;;;;;;4988391;28;20029;-59
2021/10/20 06:36:58;;;;;;;5.38;2.42;;;;;;;;;;4988407;28;20034;-59
2021/10/20 06:39:24;;;;;;;5.07;1.98;;;;;;;;;;4986157;28;20027;-59
2021/10/20 06:41:50;;;;;;;15.98;3.10;;;;;;;;;;4991455;28;20026;-59
2021/10/20 06:44:15;;;;;;;3.20;2.05;;;;;;;;;;4990210;28;20033;-59
2021/10/20 06:46:41;;;;;;;4.35;2.60;;;;;;;;;;4991922;28;20268;-59
2021/10/20 06:49:06;;;;;;;5.85;3.95;;;;;;;;;;4991623;28;20026;-59
2021/10/20 06:51:31;;;;;;;7.05;4.28;;;;;;;;;;4988286;28;20495;-59
2021/10/20 06:53:58;;;;;;;2.67;1.55;;;;;;;;;;4989689;28;20105;-59
2021/10/20 06:56:23;;;;;;;5.55;3.65;;;;;;;;;;4985956;28;20030;-59
2021/10/20 06:58:49;;;;;;;4.63;3.67;;;;;;;;;;4996109;28;20034;-59
2021/10/20 07:01:14;;;;;;;8.48;4.95;;;;;;;;;;4991099;28;20510;-59
2021/10/20 07:03:39;;;;;;;2.97;2.33;;;;;;;;;;4988096;28;20018;-59
2021/10/20 07:06:05;;;;;;;4.35;3.53;;;;;;;;;;4990240;28;20052;-59
2021/10/20 07:08:30;;;;;;;4.90;2.17;;;;;;;;;;4989547;28;20057;-59
2021/10/20 07:10:55;;;;;;;2.67;1.88;;;;;;;;;;4991119;28;20029;-59
2021/10/20 07:13:21;;;;;;;3.35;1.63;;;;;;;;;;4984642;28;20025;-59
2021/10/20 07:15:47;;;;;;;1.25;1.15;;;;;;;;;;4992399;28;20037;-58
2021/10/20 07:18:12;;;;;;;1.98;1.25;;;;;;;;;;4992520;28;20102;-59
2021/10/20 07:20:38;;;;;;;3.05;1.48;;;;;;;;;;4987922;28;20483;-58
2021/10/20 07:23:03;;;;;;;7.72;1.80;;;;;;;;;;4991063;28;20014;-61
2021/10/20 07:25:28;;;;;;;2.47;1.20;;;;;;;;;;4988541;28;20037;-62
2021/10/20 07:27:54;;;;;;;2.38;1.25;;;;;;;;;;4984519;28;20106;-60
2021/10/20 07:30:19;;;;;;;4.32;3.33;;;;;;;;;;4984800;28;20041;-57
2021/10/20 07:32:44;;;;;;;7.85;6.95;;;;;;;;;;4989371;28;20056;-61
2021/10/20 07:35:11;;;;;;;5.97;5.30;;;;;;;;;;4992953;28;20105;-57
2021/10/20 07:37:36;;;;;;;10.38;9.23;;;;;;;;;;4989128;28;20569;-63
2021/10/20 07:40:03;;;;;;;7.15;4.88;;;;;;;;;;4983230;28;20031;-60
2021/10/20 07:42:29;;;;;;;4.82;2.97;;;;;;;;;;4987230;28;20021;-60
2021/10/20 07:44:54;;;;;;;6.25;4.25;;;;;;;;;;4990295;28;20014;-60
2021/10/20 07:47:23;;;;;;;4.60;4.10;;;;;;;;;;4991362;28;20050;-60
2021/10/20 07:49:49;;;;;;;9.40;5.70;;;;;;;;;;4987776;28;20560;-60
2021/10/20 07:52:14;;;;;;;11.25;6.90;;;;;;;;;;4983775;28;20049;-60
2021/10/20 07:54:39;;;;;;;5.15;4.22;;;;;;;;;;4985171;28;20025;-61
2021/10/20 07:57:05;;;;;;;6.60;6.00;;;;;;;;;;4985737;28;20034;-60
2021/10/20 07:59:30;;;;;;;6.10;2.00;;;;;;;;;;4984340;28;20077;-60
2021/10/20 08:01:56;;;;;;;4.63;3.20;;;;;;;;;;4990148;28;20079;-59
2021/10/20 08:04:21;;;;;;;2.53;1.83;;;;;;;;;;4988617;28;20156;-60
2021/10/20 08:06:46;;;;;;;9.30;5.95;;;;;;;;;;4987292;28;20126;-60
2021/10/20 08:09:12;;;;;;;44.70;31.90;;;;;;;;;;4987585;28;20425;-60
2021/10/20 08:11:37;;;;;;;46.55;38.20;;;;;;;;;;4993057;28;20123;-60
2021/10/20 08:14:03;;;;;;;59.42;43.58;;;;;;;;;;4987319;28;20022;-60
2021/10/20 08:16:29;;;;;;;59.22;53.20;;;;;;;;;;4986156;28;20033;-60
2021/10/20 08:18:54;;;;;;;89.85;75.68;;;;;;;;;;4981276;28;20718;-60
2021/10/20 08:21:20;;;;;;;127.53;111.70;;;;;;;;;;4986581;28;20051;-60
2021/10/20 08:23:45;;;;;;;272.08;222.00;;;;;;;;;;4981945;28;20022;-61
2021/10/20 08:26:10;;;;;;;279.85;221.57;;;;;;;;;;4989180;28;20532;-60
2021/10/20 08:28:36;;;;;;;260.83;212.20;;;;;;;;;;4991175;28;20117;-60
2021/10/20 08:31:01;;;;;;;185.73;153.43;;;;;;;;;;4986913;28;20030;-61
2021/10/20 08:33:27;;;;;;;94.60;84.07;;;;;;;;;;4987448;28;20030;-61
2021/10/20 08:35:52;;;;;;;141.85;106.93;;;;;;;;;;4985752;28;20509;-61
2021/10/20 08:38:18;;;;;;;74.53;55.05;;;;;;;;;;4982757;28;20113;-60
2021/10/20 08:40:47;;;;;;;34.92;24.05;;;;;;;;;;4988566;28;20058;-60
2021/10/20 08:43:16;;;;;;;30.75;18.20;;;;;;;;;;4993254;28;20034;-60
2021/10/20 08:45:41;;;;;;;6.78;3.78;;;;;;;;;;4988021;28;20014;-61
2021/10/20 08:48:07;;;;;;;5.57;3.60;;;;;;;;;;4986855;28;20028;-61
2021/10/20 08:50:33;;;;;;;8.13;5.30;;;;;;;;;;4996103;28;20101;-61
2021/10/20 08:52:59;;;;;;;3.63;1.75;;;;;;;;;;4991908;28;20030;-61
2021/10/20 08:55:25;;;;;;;2.75;1.58;;;;;;;;;;4994278;28;20044;-61
2021/10/20 08:57:51;;;;;;;1.75;1.17;;;;;;;;;;4995144;28;20018;-61
2021/10/20 09:00:17;;;;;;;4.47;1.85;;;;;;;;;;4985573;28;20030;-61
2021/10/20 09:02:45;;;;;;;4.72;2.35;;;;;;;;;;4982465;28;20026;-61
2021/10/20 09:05:13;;;;;;;3.58;1.48;;;;;;;;;;4988854;28;20040;-61
2021/10/20 09:07:45;;;;;;;1.38;0.98;;;;;;;;;;4993142;28;20393;-61
2021/10/20 09:10:12;;;;;;;2.30;0.98;;;;;;;;;;4993417;28;20041;-61
2021/10/20 09:12:38;;;;;;;1.45;1.00;;;;;;;;;;4986164;28;20090;-61
2021/10/20 09:15:04;;;;;;;4.22;1.20;;;;;;;;;;4988848;28;20130;-61
2021/10/20 09:17:43;;;;;;;2.00;1.00;;;;;;;;;;4990647;28;20014;-61
2021/10/20 09:20:47;;;;;;;1.70;0.85;;;;;;;;;;4991085;28;20283;-61
2021/10/20 09:23:20;;;;;;;3.00;1.40;;;;;;;;;;5041925;28;20674;-61
2021/10/20 09:25:52;;;;;;;10.32;0.90;;;;;;;;;;5042644;28;20568;-60
2021/10/20 09:28:25;;;;;;;5.78;3.00;;;;;;;;;;5013032;28;20149;-61
2021/10/20 09:30:51;;;;;;;4.45;3.72;;;;;;;;;;4988671;28;20030;-61
2021/10/20 09:33:17;;;;;;;4.18;1.67;;;;;;;;;;4997612;28;20123;-61
2021/10/20 09:35:42;;;;;;;2.90;1.52;;;;;;;;;;4984791;28;20023;-60
2021/10/20 09:38:08;;;;;;;4.03;2.80;;;;;;;;;;4988875;28;20169;-61
2021/10/20 09:40:42;;;;;;;7.95;7.05;;;;;;;;;;4988344;28;20056;-60
2021/10/20 09:43:08;;;;;;;3.35;1.77;;;;;;;;;;4987134;28;20011;-60
2021/10/20 09:45:35;;;;;;;3.60;1.90;;;;;;;;;;4985692;28;20027;-60
2021/10/20 09:48:11;;;;;;;2.67;1.23;;;;;;;;;;4986566;28;20038;-60
2021/10/20 09:50:54;;;;;;;4.70;2.47;;;;;;;;;;4992833;28;20091;-60
2021/10/20 09:53:19;;;;;;;5.97;3.03;;;;;;;;;;4986150;28;20026;-61
2021/10/20 09:55:44;;;;;;;6.03;3.28;;;;;;;;;;4983744;28;20033;-60
2021/10/20 09:58:12;;;;;;;10.43;6.22;;;;;;;;;;4987109;28;20037;-59
2021/10/20 10:00:37;;;;;;;8.45;5.43;;;;;;;;;;4986468;28;20053;-59
2021/10/20 10:03:04;;;;;;;12.93;8.35;;;;;;;;;;4987054;28;20018;-59
2021/10/20 10:05:31;;;;;;;5.32;3.72;;;;;;;;;;4982571;28;20077;-59
2021/10/20 10:07:56;;;;;;;3.70;2.28;;;;;;;;;;4985620;28;20031;-59
2021/10/20 10:10:22;;;;;;;13.10;5.85;;;;;;;;;;4994882;28;20480;-60
2021/10/20 10:12:48;;;;;;;19.98;7.65;;;;;;;;;;4990101;28;20022;-57
2021/10/20 10:15:17;;;;;;;2.92;2.25;;;;;;;;;;4990724;28;20109;-59
2021/10/20 10:17:43;;;;;;;3.85;3.28;;;;;;;;;;4978598;28;20030;-58
2021/10/20 10:20:08;;;;;;;21.33;13.02;;;;;;;;;;4985599;28;20045;-60
2021/10/20 10:22:34;;;;;;;6.60;4.22;;;;;;;;;;4987255;28;20499;-58
2021/10/20 10:25:00;;;;;;;4.72;3.15;;;;;;;;;;4991245;28;20071;-57
2021/10/20 10:27:28;;;;;;;4.82;2.75;;;;;;;;;;4992733;28;20101;-59
2021/10/20 10:29:54;;;;;;;3.95;2.88;;;;;;;;;;4988355;28;20125;-55
2021/10/20 10:32:20;;;;;;;6.65;3.05;;;;;;;;;;4987752;28;20566;-60
2021/10/20 10:34:47;;;;;;;4.40;2.30;;;;;;;;;;4983718;28;20544;-52
2021/10/20 10:37:35;;;;;;;14.50;2.75;;;;;;;;;;4992299;28;20058;-58
2021/10/20 10:40:21;;;;;;;3.42;2.47;;;;;;;;;;4996389;28;20038;-57
2021/10/20 10:42:47;;;;;;;8.20;4.22;;;;;;;;;;4989138;28;20355;-57
2021/10/20 10:45:14;;;;;;;5.97;3.03;;;;;;;;;;4992543;28;20613;-57
2021/10/20 10:47:54;;;;;;;5.95;3.47;;;;;;;;;;4989981;28;20043;-57
2021/10/20 10:50:20;;;;;;;34.58;4.28;;;;;;;;;;4987847;28;20029;-58
2021/10/20 10:52:45;;;;;;;18.80;4.38;;;;;;;;;;4990328;28;20052;-58
2021/10/20 10:55:14;;;;;;;8.70;3.13;;;;;;;;;;4991043;28;20044;-58
2021/10/20 10:57:44;;;;;;;7.13;2.40;;;;;;;;;;4990720;28;20018;-58
2021/10/20 11:00:18;;;;;;;11.00;4.97;;;;;;;;;;4988492;28;20088;-61
2021/10/20 11:02:47;;;;;;;7.95;5.70;;;;;;;;;;4993690;28;20069;-61
2021/10/20 11:05:13;;;;;;;7.80;4.30;;;;;;;;;;4985589;28;20026;-61
2021/10/20 11:07:38;;;;;;;8.95;4.22;;;;;;;;;;4989153;28;20037;-61
2021/10/20 11:10:05;;;;;;;3.58;2.78;;;;;;;;;;4990498;28;20018;-60
2021/10/20 11:12:31;;;;;;;4.05;2.47;;;;;;;;;;4990995;28;20061;-61
2021/10/20 11:14:57;;;;;;;4.40;2.60;;;;;;;;;;4983732;28;20022;-60
2021/10/20 11:17:23;;;;;;;6.65;2.58;;;;;;;;;;4986482;28;20014;-60
2021/10/20 11:19:49;;;;;;;2.08;1.75;;;;;;;;;;4992158;28;20049;-60
2021/10/20 11:22:22;;;;;;;3.97;2.72;;;;;;;;;;4992842;28;20015;-60
2021/10/20 11:24:48;;;;;;;4.13;1.85;;;;;;;;;;4991817;28;20573;-60
2021/10/20 11:27:15;;;;;;;4.10;2.13;;;;;;;;;;4984424;28;20098;-60
2021/10/20 11:29:48;;;;;;;5.05;2.55;;;;;;;;;;4988163;28;20029;-60
2021/10/20 11:32:14;;;;;;;4.57;2.25;;;;;;;;;;4990551;28;20029;-60
2021/10/20 11:34:43;;;;;;;2.55;1.30;;;;;;;;;;4991213;28;20014;-60
2021/10/20 11:37:10;;;;;;;1.67;1.38;;;;;;;;;;4990863;28;20038;-60
2021/10/20 11:39:35;;;;;;;2.65;1.75;;;;;;;;;;4989094;28;20014;-60
2021/10/20 11:42:02;;;;;;;5.22;2.15;;;;;;;;;;4992058;28;20037;-60
2021/10/20 11:44:34;;;;;;;2.85;1.67;;;;;;;;;;4990697;28;20439;-60
2021/10/20 11:47:00;;;;;;;2.72;1.42;;;;;;;;;;4988142;28;20562;-61
2021/10/20 11:49:26;;;;;;;2.35;1.52;;;;;;;;;;4990956;28;20038;-60
2021/10/20 11:51:52;;;;;;;4.95;2.00;;;;;;;;;;4984232;28;20044;-60
2021/10/20 11:54:19;;;;;;;2.35;1.25;;;;;;;;;;4990093;28;20027;-60
2021/10/20 11:56:51;;;;;;;7.10;5.20;;;;;;;;;;4988890;28;20026;-60
2021/10/20 11:59:21;;;;;;;7.95;2.90;;;;;;;;;;4990389;28;20029;-60
2021/10/20 12:01:47;;;;;;;12.65;2.65;;;;;;;;;;4992671;28;20045;-60
2021/10/20 12:04:13;;;;;;;5.55;1.85;;;;;;;;;;4990508;28;20026;-59
2021/10/20 12:06:38;;;;;;;2.17;1.58;;;;;;;;;;4987867;28;20697;-61
2021/10/20 12:09:05;;;;;;;2.80;1.67;;;;;;;;;;4990494;28;20588;-60
2021/10/20 12:11:31;;;;;;;2.97;2.28;;;;;;;;;;4989622;28;20026;-60
2021/10/20 12:14:04;;;;;;;3.50;2.47;;;;;;;;;;4985348;28;20533;-60
2021/10/20 12:16:30;;;;;;;7.43;2.47;;;;;;;;;;4988488;28;20026;-61
2021/10/20 12:18:56;;;;;;;4.00;1.75;;;;;;;;;;4989342;28;20571;-58
2021/10/20 12:21:25;;;;;;;4.50;1.38;;;;;;;;;;4989793;28;20479;-58
2021/10/20 12:23:51;;;;;;;1.27;1.10;;;;;;;;;;4993312;28;20018;-58
2021/10/20 12:26:16;;;;;;;5.47;1.90;;;;;;;;;;4991191;28;20034;-58
2021/10/20 12:28:44;;;;;;;2.97;1.48;;;;;;;;;;4990317;28;20050;-59
2021/10/20 12:31:10;;;;;;;1.42;1.13;;;;;;;;;;4993975;28;20510;-59
2021/10/20 12:33:42;;;;;;;3.58;1.65;;;;;;;;;;4991348;28;20079;-58
2021/10/20 12:36:07;;;;;;;11.00;1.90;;;;;;;;;;4989670;28;20441;-58
2021/10/20 12:38:34;;;;;;;5.85;2.22;;;;;;;;;;4990717;28;20023;-59
2021/10/20 12:41:06;;;;;;;6.38;2.05;;;;;;;;;;4991907;28;20105;-58
2021/10/20 12:43:31;;;;;;;6.35;2.08;;;;;;;;;;4988653;28;20032;-55
2021/10/20 12:45:57;;;;;;;2.65;1.55;;;;;;;;;;4992064;28;20540;-57
2021/10/20 12:48:23;;;;;;;3.45;1.85;;;;;;;;;;4992578;28;20067;-58
2021/10/20 12:50:48;;;;;;;10.40;3.15;;;;;;;;;;4988945;28;20023;-57
2021/10/20 12:53:14;;;;;;;32.35;3.65;;;;;;;;;;4986204;28;20881;-57
2021/10/20 12:55:40;;;;;;;6.88;3.08;;;;;;;;;;4991687;28;20061;-59
2021/10/20 12:58:11;;;;;;;2.40;1.75;;;;;;;;;;4996376;28;20067;-62
2021/10/20 13:00:36;;;;;;;9.90;7.25;;;;;;;;;;4987304;28;20452;-57
2021/10/20 13:03:02;;;;;;;6.18;4.32;;;;;;;;;;4990605;28;20065;-59
2021/10/20 13:05:27;;;;;;;4.03;2.30;;;;;;;;;;4987988;28;20019;-58
2021/10/20 13:07:55;;;;;;;3.40;2.05;;;;;;;;;;4989797;28;20083;-58
2021/10/20 13:10:21;;;;;;;5.05;2.38;;;;;;;;;;4990276;28;20027;-57
2021/10/20 13:12:49;;;;;;;1.92;1.50;;;;;;;;;;4989363;28;20022;-58
2021/10/20 13:15:14;;;;;;;2.95;2.28;;;;;;;;;;4989427;28;20037;-56
2021/10/20 13:17:40;;;;;;;2.78;1.45;;;;;;;;;;4991793;28;20033;-58
2021/10/20 13:20:10;;;;;;;2.88;1.58;;;;;;;;;;4991334;28;20057;-57
2021/10/20 13:22:36;;;;;;;3.00;1.33;;;;;;;;;;4992120;28;20026;-57
2021/10/20 13:25:02;;;;;;;20.00;2.03;;;;;;;;;;4993105;28;20078;-59
2021/10/20 13:27:27;;;;;;;2.03;1.77;;;;;;;;;;4991629;28;20141;-60
2021/10/20 13:29:53;;;;;;;4.03;2.05;;;;;;;;;;4992465;28;20032;-60
2021/10/20 13:32:18;;;;;;;2.28;1.17;;;;;;;;;;4989739;28;20022;-57
2021/10/20 13:34:43;;;;;;;16.60;3.22;;;;;;;;;;4990213;28;20747;-57
2021/10/20 13:37:09;;;;;;;3.10;1.38;;;;;;;;;;4992343;28;20113;-57
2021/10/20 13:39:34;;;;;;;4.82;1.85;;;;;;;;;;4990692;28;20018;-57
2021/10/20 13:42:00;;;;;;;8.15;2.70;;;;;;;;;;4990801;28;20206;-57
2021/10/20 13:44:26;;;;;;;3.63;1.65;;;;;;;;;;4995140;28;20034;-57
2021/10/20 13:46:51;;;;;;;2.42;2.05;;;;;;;;;;4990312;28;20076;-57
2021/10/20 13:49:16;;;;;;;3.47;2.38;;;;;;;;;;4986909;28;20106;-58
2021/10/20 13:51:42;;;;;;;3.20;1.85;;;;;;;;;;4990558;28;20030;-56
2021/10/20 13:54:07;;;;;;;2.45;1.73;;;;;;;;;;4989772;28;20034;-57
2021/10/20 13:56:32;;;;;;;3.10;2.22;;;;;;;;;;4988218;28;20528;-57
2021/10/20 13:58:59;;;;;;;2.90;2.13;;;;;;;;;;4986590;28;20034;-56
2021/10/20 14:01:24;;;;;;;2.30;1.05;;;;;;;;;;4989945;28;20503;-56
2021/10/20 14:03:50;;;;;;;1.75;1.20;;;;;;;;;;4991742;28;20033;-54
2021/10/20 14:06:16;;;;;;;1.85;1.33;;;;;;;;;;4991749;28;20054;-56
2021/10/20 14:08:41;;;;;;;2.78;1.67;;;;;;;;;;4985581;28;20064;-55
2021/10/20 14:11:07;;;;;;;2.22;1.55;;;;;;;;;;4987464;28;20705;-55
2021/10/20 14:13:32;;;;;;;2.88;1.73;;;;;;;;;;4991354;28;20052;-54
2021/10/20 14:15:58;;;;;;;1.85;1.27;;;;;;;;;;4989533;28;20026;-56
2021/10/20 14:18:25;;;;;;;1.75;1.30;;;;;;;;;;4986850;28;20019;-54
2021/10/20 14:20:50;;;;;;;6.72;2.33;;;;;;;;;;4974602;28;20061;-60
2021/10/20 14:23:16;;;;;;;8.68;6.63;;;;;;;;;;4982565;28;20077;-56
2021/10/20 14:25:41;;;;;;;6.72;2.88;;;;;;;;;;4995171;28;20019;-57
2021/10/20 14:28:06;;;;;;;3.30;1.90;;;;;;;;;;4990741;28;20075;-57
2021/10/20 14:30:32;;;;;;;1.00;0.80;;;;;;;;;;4989499;28;20022;-55
2021/10/20 14:32:57;;;;;;;3.40;1.13;;;;;;;;;;4991046;28;20029;-58
2021/10/20 14:35:22;;;;;;;4.03;2.38;;;;;;;;;;4993961;28;20403;-58